createdAt,value
2018-07-24T00:03:35.044Z,64.63
2018-07-24T00:08:38.579Z,65.31
2018-07-24T00:13:42.165Z,65.62
2018-07-24T00:18:46.515Z,67.04
2018-07-24T00:23:50.723Z,67.90
2018-07-24T00:28:54.215Z,67.95
2018-07-24T00:33:58.533Z,67.87
2018-07-24T00:39:02.224Z,67.43
2018-07-24T00:44:06.188Z,67.49
2018-07-24T00:49:09.674Z,67.77
2018-07-24T00:54:13.338Z,68.31
2018-07-24T00:59:16.847Z,68.50
2018-07-24T01:04:20.561Z,68.45
2018-07-24T01:09:24.116Z,69.03
2018-07-24T01:14:27.657Z,69.54
2018-07-24T01:19:31.165Z,70.04
2018-07-24T01:24:35.262Z,70.91
2018-07-24T01:29:38.833Z,71.13
2018-07-24T01:34:42.402Z,71.44
2018-07-24T01:39:46.354Z,71.18
2018-07-24T01:44:50.464Z,71.19
2018-07-24T01:49:54.048Z,70.39
2018-07-24T01:54:57.581Z,69.61
2018-07-24T02:00:01.166Z,69.99
2018-07-24T02:05:04.863Z,70.61
2018-07-24T02:10:08.888Z,71.34
2018-07-24T02:15:12.849Z,71.86
2018-07-24T02:20:16.373Z,71.63
2018-07-24T02:25:19.950Z,72.22
2018-07-24T02:30:32.446Z,71.36
2018-07-24T02:35:35.974Z,72.25
2018-07-24T02:40:39.574Z,70.94
2018-07-24T02:45:43.128Z,71.76
2018-07-24T02:50:46.704Z,71.70
2018-07-24T02:55:50.264Z,71.99
2018-07-24T03:00:53.853Z,73.24
2018-07-24T03:05:57.431Z,73.43
2018-07-24T03:11:00.931Z,73.88
2018-07-24T03:16:05.064Z,73.57
2018-07-24T03:21:08.675Z,73.16
2018-07-24T03:26:12.247Z,72.61
2018-07-24T03:31:15.755Z,73.02
2018-07-24T03:36:19.966Z,73.56
2018-07-24T03:41:23.519Z,73.55
2018-07-24T03:46:28.841Z,72.74
2018-07-24T03:51:32.369Z,72.93
2018-07-24T03:56:35.936Z,72.52
2018-07-24T04:01:39.707Z,72.87
2018-07-24T04:06:43.353Z,72.25
2018-07-24T04:11:47.459Z,72.65
2018-07-24T04:16:52.608Z,71.50
2018-07-24T04:21:56.089Z,72.74
2018-07-24T04:26:59.690Z,71.48
2018-07-24T04:32:03.227Z,72.36
2018-07-24T04:37:07.096Z,71.95
2018-07-24T04:42:10.645Z,71.12
2018-07-24T04:52:16.990Z,65.12
2018-07-24T04:57:20.524Z,58.52
2018-07-24T05:02:24.102Z,56.54
2018-07-24T05:07:27.720Z,53.12
2018-07-24T05:12:31.689Z,52.30
2018-07-24T05:17:35.190Z,53.67
2018-07-24T05:22:38.683Z,57.00
2018-07-24T05:27:42.262Z,59.24
2018-07-24T05:32:46.363Z,62.54
2018-07-24T05:37:49.934Z,63.02
2018-07-24T05:42:53.434Z,61.81
2018-07-24T05:47:56.970Z,62.17
2018-07-24T05:53:00.468Z,61.80
2018-07-24T05:58:05.359Z,61.98
2018-07-24T06:03:08.853Z,61.73
2018-07-24T06:08:12.575Z,60.95
2018-07-24T06:13:16.117Z,60.43
2018-07-24T06:18:19.629Z,58.94
2018-07-24T06:23:23.295Z,56.35
2018-07-24T06:28:26.918Z,55.96
2018-07-24T06:33:31.335Z,56.73
2018-07-24T06:38:35.022Z,56.05
2018-07-24T06:43:39.108Z,55.83
2018-07-24T06:48:44.382Z,54.19
2018-07-24T06:53:47.870Z,54.08
2018-07-24T06:58:51.402Z,53.28
2018-07-24T07:03:55.549Z,53.32
2018-07-24T07:09:06.883Z,52.49
2018-07-24T07:14:10.349Z,51.24
2018-07-24T07:19:14.364Z,50.63
2018-07-24T07:24:17.860Z,49.60
2018-07-24T07:29:21.362Z,49.29
2018-07-24T07:34:25.087Z,49.45
2018-07-24T07:39:29.086Z,48.97
2018-07-24T07:44:32.700Z,47.96
2018-07-24T07:49:36.349Z,49.22
2018-07-24T07:54:40.716Z,46.32
2018-07-24T07:59:44.243Z,44.99
2018-07-24T08:04:49.152Z,43.57
2018-07-24T08:09:52.704Z,44.00
2018-07-24T08:14:56.305Z,42.39
2018-07-24T08:19:59.937Z,43.22
2018-07-24T08:25:03.493Z,41.80
2018-07-24T08:30:08.127Z,40.71
2018-07-24T08:35:12.683Z,41.55
2018-07-24T08:40:16.840Z,39.59
2018-07-24T08:45:20.391Z,38.78
2018-07-24T08:50:23.978Z,38.31
2018-07-24T08:55:27.726Z,39.04
2018-07-24T09:00:37.076Z,39.17
2018-07-24T09:05:40.628Z,37.82
2018-07-24T09:10:44.153Z,37.93
2018-07-24T09:15:47.958Z,36.91
2018-07-24T09:20:51.525Z,36.68
2018-07-24T09:25:55.129Z,35.64
2018-07-24T09:30:58.690Z,35.89
2018-07-24T09:36:02.225Z,35.69
2018-07-24T09:41:05.770Z,35.68
2018-07-24T09:46:09.295Z,35.09
2018-07-24T09:51:13.274Z,36.35
2018-07-24T09:56:16.768Z,35.02
2018-07-24T10:01:25.787Z,35.54
2018-07-24T10:06:29.926Z,34.09
2018-07-24T10:11:33.497Z,34.48
2018-07-24T10:16:37.527Z,34.53
2018-07-24T10:21:41.020Z,34.84
2018-07-24T10:26:45.162Z,34.09
2018-07-24T10:31:48.784Z,33.68
2018-07-24T10:36:52.844Z,33.82
2018-07-24T10:41:56.366Z,33.06
2018-07-24T10:47:00.096Z,34.30
2018-07-24T10:52:03.649Z,33.96
2018-07-24T10:57:07.257Z,32.96
2018-07-24T11:02:10.902Z,32.87
2018-07-24T11:07:14.379Z,32.26
2018-07-24T11:12:18.750Z,32.16
2018-07-24T11:17:22.265Z,31.87
2018-07-24T11:22:26.048Z,32.90
2018-07-24T11:27:29.540Z,31.77
2018-07-24T11:32:34.516Z,31.93
2018-07-24T11:37:38.112Z,31.29
2018-07-24T11:42:41.651Z,31.90
2018-07-24T11:47:45.139Z,31.89
2018-07-24T11:52:48.693Z,30.92
2018-07-24T11:57:52.165Z,31.06
2018-07-24T12:02:55.945Z,31.41
2018-07-24T12:07:59.456Z,31.46
2018-07-24T12:13:03.078Z,31.55
2018-07-24T12:18:06.644Z,31.56
2018-07-24T12:23:10.168Z,31.06
2018-07-24T12:28:13.610Z,30.79
2018-07-24T12:33:17.126Z,30.03
2018-07-24T12:38:20.605Z,30.42
2018-07-24T12:43:24.349Z,29.94
2018-07-24T12:48:27.933Z,30.04
2018-07-24T12:53:31.457Z,29.76
2018-07-24T12:58:35.518Z,29.78
2018-07-24T13:03:39.051Z,28.67
2018-07-24T13:08:42.564Z,29.62
2018-07-24T13:13:46.090Z,29.56
2018-07-24T13:18:49.584Z,29.91
2018-07-24T13:23:53.130Z,28.70
2018-07-24T13:28:56.580Z,28.63
2018-07-24T13:34:01.209Z,30.05
2018-07-24T13:39:07.036Z,29.26
2018-07-24T13:44:10.597Z,29.20
2018-07-24T13:49:14.180Z,28.50
2018-07-24T13:54:17.715Z,29.31
2018-07-24T13:59:21.184Z,29.92
2018-07-24T14:04:24.686Z,29.80
2018-07-24T14:09:28.234Z,29.62
2018-07-24T14:14:31.780Z,28.24
2018-07-24T14:19:35.265Z,29.13
2018-07-24T14:24:38.878Z,29.14
2018-07-24T14:29:42.341Z,27.56
2018-07-24T14:34:46.054Z,27.24
2018-07-24T14:39:49.743Z,28.13
2018-07-24T14:44:54.022Z,27.94
2018-07-24T14:49:57.502Z,27.79
2018-07-24T14:55:01.012Z,28.01
2018-07-24T15:00:06.233Z,28.46
2018-07-24T15:05:09.837Z,27.52
2018-07-24T15:10:13.338Z,28.26
2018-07-24T15:15:16.869Z,28.38
2018-07-24T15:20:20.309Z,28.70
2018-07-24T15:25:23.986Z,27.20
2018-07-24T15:30:30.696Z,28.51
2018-07-24T15:35:35.065Z,27.87
2018-07-24T15:40:38.609Z,27.35
2018-07-24T15:45:42.121Z,27.85
2018-07-24T15:50:45.577Z,27.98
2018-07-24T15:55:49.607Z,27.60
2018-07-24T16:00:53.134Z,27.28
2018-07-24T16:05:56.898Z,28.23
2018-07-24T16:11:00.489Z,26.57
2018-07-24T16:16:04.080Z,27.50
2018-07-24T16:21:07.609Z,27.14
2018-07-24T16:26:11.152Z,27.17
2018-07-24T16:31:14.645Z,26.68
2018-07-24T16:36:18.258Z,27.48
2018-07-24T16:41:21.911Z,27.77
2018-07-24T16:46:25.565Z,27.64
2018-07-24T16:51:29.292Z,28.24
2018-07-24T16:56:33.836Z,26.17
2018-07-24T17:01:37.387Z,27.30
2018-07-24T17:06:40.981Z,26.45
2018-07-24T17:11:44.564Z,26.46
2018-07-24T17:16:48.588Z,25.98
2018-07-24T17:21:52.058Z,26.97
2018-07-24T17:26:56.585Z,26.47
2018-07-24T17:32:00.053Z,27.58
2018-07-24T17:37:03.572Z,27.16
2018-07-24T17:42:07.073Z,28.30
2018-07-24T17:47:10.654Z,27.52
2018-07-24T17:52:14.192Z,28.07
2018-07-24T17:57:18.331Z,27.96
2018-07-24T18:02:21.930Z,28.05
2018-07-24T18:07:25.552Z,29.44
2018-07-24T18:12:30.108Z,29.63
2018-07-24T18:17:34.200Z,30.91
2018-07-24T18:22:37.672Z,31.45
2018-07-24T18:27:41.652Z,32.11
2018-07-24T18:32:45.171Z,34.04
2018-07-24T18:37:48.718Z,32.89
2018-07-24T18:42:52.202Z,33.60
2018-07-24T18:47:55.763Z,34.65
2018-07-24T18:52:59.363Z,34.75
2018-07-24T18:58:02.910Z,36.59
2018-07-24T19:03:06.370Z,36.18
2018-07-24T19:08:09.968Z,38.34
2018-07-24T19:13:13.547Z,38.73
2018-07-24T19:18:17.629Z,38.11
2018-07-24T19:23:21.097Z,39.06
2018-07-24T19:28:24.631Z,39.97
2018-07-24T19:33:28.575Z,42.83
2018-07-24T19:38:32.134Z,43.22
2018-07-24T19:43:35.585Z,43.81
2018-07-24T19:48:39.290Z,44.34
2018-07-24T19:53:43.331Z,43.56
2018-07-24T19:58:47.133Z,44.19
2018-07-24T20:03:50.722Z,44.30
2018-07-24T20:08:54.353Z,46.09
2018-07-24T20:13:57.946Z,47.20
2018-07-24T20:19:01.649Z,47.16
2018-07-24T20:24:05.207Z,48.21
2018-07-24T20:29:08.790Z,47.07
2018-07-24T20:34:12.465Z,47.10
2018-07-24T20:39:16.622Z,47.24
2018-07-24T20:44:20.233Z,47.73
2018-07-24T20:49:23.774Z,46.86
2018-07-24T20:54:27.353Z,46.79
2018-07-24T20:59:31.018Z,48.35
2018-07-24T21:04:34.520Z,48.28
2018-07-24T21:09:38.157Z,48.95
2018-07-24T21:14:41.741Z,50.44
2018-07-24T21:19:45.365Z,49.62
2018-07-24T21:24:49.388Z,50.63
2018-07-24T21:29:52.934Z,51.83
2018-07-24T21:34:56.460Z,52.07
2018-07-24T21:40:00.070Z,51.72
2018-07-24T21:45:03.599Z,52.15
2018-07-24T21:50:07.229Z,52.38
2018-07-24T21:55:10.788Z,52.57
2018-07-24T22:00:16.489Z,51.94
2018-07-24T22:05:20.354Z,52.13
2018-07-24T22:10:24.371Z,52.47
2018-07-24T22:15:28.283Z,53.24
2018-07-24T22:20:31.849Z,53.59
2018-07-24T22:25:35.341Z,54.68
2018-07-24T22:30:39.489Z,54.95
2018-07-24T22:35:42.997Z,54.60
2018-07-24T22:40:46.613Z,55.28
2018-07-24T22:45:50.096Z,55.68
2018-07-24T22:50:53.666Z,55.94
2018-07-24T22:55:57.156Z,55.76
2018-07-24T23:01:01.631Z,55.20
2018-07-24T23:06:05.820Z,55.23
2018-07-24T23:11:09.367Z,55.94
2018-07-24T23:16:13.011Z,55.16
2018-07-24T23:21:16.579Z,54.47
2018-07-24T23:26:20.105Z,54.67
2018-07-24T23:31:23.661Z,55.76
2018-07-24T23:36:27.263Z,56.40
2018-07-24T23:41:30.793Z,57.00
2018-07-24T23:46:34.430Z,56.64
2018-07-24T23:51:38.014Z,57.13
2018-07-24T23:56:41.521Z,57.27
